• Join FlightAware (Why Join?)
  • Login
  • US Flag 
02:24PM EDT


 

Airport Tracker/Info


-or-


 

Live Flight TrackerFlight Track Log ✈ N31KE ✈ 20-Oct-2013 ✈ KMGW - KCRW

Flight Track Log - Related Links

Times and Time Zones

All times are in EDT time to prevent confusion due to time zone crossing. See the N31KE flight status page for this flight to view local times or setup timezone preferences in your user account.

Time Position Orientation Groundspeed Altitude Reporting Facility
EDT Latitude Longitude Course Direction KTS MPH feet Rate Location/Type
01:47PM 39.5808 -79.9897 225° Southwest 86 99 3,900  Level Cleveland Center
01:48PM 39.5650 -80.0094 224° Southwest 83 96 4,300 420 Climbing Cleveland Center
01:49PM 39.5439 -80.0336 221° Southwest 83 96 4,800 360 Climbing Cleveland Center
01:50PM 39.4471 -80.1790 226° Southwest  Level FlightAware Approximate
01:50PM 39.5275 -80.0556 226° Southwest 84 97 5,100  Level Cleveland Center
01:51PM 39.4271 -80.2054 226° Southwest  Level FlightAware Approximate
01:51PM 39.5094 -80.0769 222° Southwest 86 99 5,600  Level Cleveland Center
01:52PM 39.4906 -80.0994 223° Southwest 89 102 6,100 420 Climbing Cleveland Center
01:53PM 39.4728 -80.1211 223° Southwest 89 102 6,500 480 Climbing Cleveland Center
01:54PM 39.4544 -80.1475 228° Southwest 92 106 7,100 -60 Climbing Cleveland Center
01:55PM 39.4267 -80.1847 226° Southwest 105 121 6,400 -300 Descending Cleveland Center
01:56PM 39.4053 -80.2106 223° Southwest 108 124 6,600  Climbing Cleveland Center
01:57PM 39.3822 -80.2353 220° Southwest 109 125 6,500 -60 Descending Cleveland Center
01:58PM 39.3603 -80.2628 224° Southwest 109 125 6,500  Level Cleveland Center
01:59PM 39.3397 -80.2933 229° Southwest 109 125 6,500  Level Cleveland Center
02:00PM 39.3192 -80.3233 228° Southwest 111 128 6,600  Climbing Cleveland Center
02:01PM 39.2931 -80.3583 226° Southwest 112 129 6,500 -60 Descending Cleveland Center
02:02PM 39.2719 -80.3872 227° Southwest 111 128 6,500  Level Cleveland Center
02:03PM 39.2522 -80.4136 226° Southwest 108 124 6,500  Level Cleveland Center
02:04PM 39.2328 -80.4392 226° Southwest 104 120 6,600  Climbing Cleveland Center
02:05PM 39.2128 -80.4669 227° Southwest 104 120 6,600  Level Cleveland Center
02:06PM 39.1917 -80.4964 227° Southwest 107 123 6,600 -60 Level Cleveland Center
02:07PM 39.1658 -80.5322 227° Southwest 111 128 6,500 -60 Descending Cleveland Center
02:08PM 39.1442 -80.5611 226° Southwest 112 129 6,500  Level Cleveland Center
02:10PM 39.1219 -80.5914 227° Southwest 114 131 6,500  Level Cleveland Center
02:11PM 39.1014 -80.6181 225° Southwest 111 128 6,600  Climbing Cleveland Center
02:12PM 39.0814 -80.6447 226° Southwest 107 123 6,600 -60 Level Cleveland Center
02:13PM 39.0592 -80.6739 226° Southwest 109 125 6,500 -60 Descending Cleveland Center
02:14PM 39.0333 -80.7100 227° Southwest 112 129 6,500  Level Cleveland Center
02:15PM 39.0119 -80.7392 227° Southwest 112 129 6,500  Level Cleveland Center
02:16PM 38.9892 -80.7694 226° Southwest 114 131 6,500  Level Cleveland Center
02:17PM 38.9681 -80.7992 228° Southwest 114 131 6,500  Level Cleveland Center
02:18PM 38.9458 -80.8283 226° Southwest 114 131 6,500 -60 Level Cleveland Center
02:19PM 38.9236 -80.8578 226° Southwest 115 132 6,400  Descending Cleveland Center
02:20PM 38.8903 -80.9036 227° Southwest 113 130 6,500 60 Climbing Indianapolis Center
02:21PM 38.8681 -80.9311 224° Southwest 111 128 6,600  Climbing Indianapolis Center
02:22PM 38.8469 -80.9600 227° Southwest 111 128 6,500 -120 Descending Indianapolis Center
02:23PM 38.8256 -80.9894 227° Southwest 112 129 6,400 -480 Descending Indianapolis Center
02:24PM 38.7964 -81.0325 229° Southwest 124 143 5,600 -540 Descending Indianapolis Center
02:25PM 38.7714 -81.0636 224° Southwest 126 145 5,300 -240 Descending Indianapolis Center
02:26PM 38.7486 -81.0944 227° Southwest 123 142 5,200 -60 Descending Indianapolis Center
02:27PM 38.7294 -81.1278 234° Southwest 119 137 5,200  Level Indianapolis Center
02:28PM 38.7111 -81.1614 235° Southwest 116 133 5,200 -60 Level Indianapolis Center
02:30PM 38.6864 -81.1892 221° Southwest 116 133 5,100 -180 Descending Indianapolis Center
02:31PM 38.6597 -81.2133 215° Southwest 116 133 4,900 -300 Descending Indianapolis Center
02:32PM 38.6294 -81.2500 223° Southwest 121 139 4,500 -420 Descending Indianapolis Center
02:33PM 38.6047 -81.2800 223° Southwest 122 140 4,100 -360 Descending Indianapolis Center
02:34PM 38.5814 -81.3100 225° Southwest 120 138 3,800 -480 Descending Indianapolis Center
02:35PM 38.5581 -81.3403 225° Southwest 119 137 3,200 -420 Descending Indianapolis Center
02:36PM 38.5350 -81.3708 226° Southwest 119 137 3,000  Descending Indianapolis Center
02:37PM 38.5133 -81.4003 227° Southwest 116 133 3,200  Climbing Indianapolis Center
02:38PM 38.4928 -81.4319 230° Southwest 115 132 3,100  Descending Indianapolis Center
02:39PM 38.4719 -81.4608 227° Southwest 113 130 3,200 -180 Climbing Indianapolis Center
02:40PM 38.4506 -81.4925 229° Southwest 104 120 2,800 -420 Descending Indianapolis Center
02:41PM 38.4319 -81.5169 226° Southwest 99 114 2,400 -360 Descending Indianapolis Center
02:42PM 38.4147 -81.5400 226° Southwest 95 109 2,100 -420 Descending Indianapolis Center
02:43PM 38.4000 -81.5614 229° Southwest 87 100 1,600 -300 Descending Indianapolis Center
02:44PM 38.3839 -81.5839 228° Southwest 86 99 1,500 -120 Descending Indianapolis Center